GW1018 Weather Reports


Display with metric or nautical units.
time (UTC)temp
F
wind
direction
speed
MPH
gust
MPH
rain 1hr
in
rain 24hr
in
rain mn
in
humidity
%
barometer
mb
20240519202949 75 147 3.0 3.0 0.00 0.00 0.00 28 1012.5
20240519201949 76 154 3.0 3.0 0.00 0.00 0.00 27 1012.5
20240519200950 76 188 2.0 2.0 0.00 0.00 0.00 29 1012.5
20240519194949 75 56 3.0 3.0 0.00 0.00 0.00 26 1012.5
20240519194449 75 56 4.0 4.0 0.00 0.00 0.00 26 1012.5
20240519193449 74 116 4.0 4.0 0.00 0.00 0.00 26 1012.9
20240519192449 75 126 4.0 4.0 0.00 0.00 0.00 29 1012.9
20240519191449 76 71 4.0 4.0 0.00 0.00 0.00 27 1012.5
20240519190450 75 131 4.0 4.0 0.00 0.00 0.00 27 1012.9
20240519185949 75 45 4.0 4.0 0.00 0.00 0.00 27 1012.9
20240519184449 74 29 4.0 4.0 0.00 0.00 0.00 28 1013.2
20240519183449 74 3 5.0 5.0 0.01 0.00 0.00 30 1013.2
20240519182949 74 62 4.0 4.0 0.01 0.00 0.00 30 1013.2
20240519182450 74 3 4.0 4.0 0.03 0.00 0.00 31 1013.5
20240519181949 74 21 4.0 4.0 0.03 0.00 0.00 30 1013.5
20240519181449 74 36 4.0 4.0 0.03 0.00 0.00 30 1013.5
20240519180449 74 86 4.0 4.0 0.03 0.00 0.00 30 1013.5
20240519174949 73 4 4.0 4.0 0.03 0.00 0.01 35 1013.5
20240519173949 72 2 3.0 3.0 0.03 0.00 0.03 38 1013.9
20240519172450 72 352 3.0 3.0 0.00 0.00 0.01 35 1013.9
20240519171449 72 4 3.0 3.0 0.00 0.00 0.00 33 1013.9
20240519170949 72 349 3.0 3.0 0.00 0.00 0.00 39 1013.9
20240519170449 71 226 3.0 3.0 0.00 0.00 0.00 41 1013.9
20240519163449 70 113 4.0 4.0 0.00 0.00 0.00 41 1013.9
20240519161949 69 26 4.0 4.0 0.00 0.00 0.00 41 1014.2
20240519161449 69 23 4.0 4.0 0.00 0.00 0.00 42 1014.2
20240519160449 69 1 4.0 4.0 0.00 0.00 0.00 41 1013.9
20240519155949 68 338 5.0 5.0 0.00 0.00 0.00 41 1014.6
20240519155449 67 55 5.0 5.0 0.00 0.00 0.00 42 1014.6
20240519153950 67 352 5.0 5.0 0.00 0.00 0.00 45 1014.6
20240519152949 66 49 4.0 4.0 0.00 0.00 0.00 46 1014.6
20240519145949 65 12 4.0 4.0 0.00 0.00 0.00 45 1015.2
20240519145449 64 49 5.0 5.0 0.00 0.00 0.00 45 1015.2
20240519144949 64 19 4.0 4.0 0.00 0.00 0.00 45 1015.2
20240519143949 64 16 3.0 3.0 0.00 0.00 0.00 46 1015.2
20240519142449 66 14 2.0 2.0 0.00 0.00 0.00 48 1015.2
20240519141949 67 270 2.0 2.0 0.00 0.00 0.00 48 1015.2
20240519141449 67 119 2.0 2.0 0.00 0.00 0.00 36 1014.6
20240519140949 67 239 3.0 3.0 0.00 0.00 0.00 38 1014.9
20240519135949 66 173 3.0 3.0 0.00 0.00 0.00 39 1015.2
20240519133449 64 206 3.0 3.0 0.00 0.00 0.00 42 1015.2
20240519132950 63 186 4.0 4.0 0.00 0.00 0.00 41 1015.2
20240519132449 63 199 3.0 3.0 0.00 0.00 0.00 42 1015.2
20240519131449 62 169 3.0 3.0 0.00 0.00 0.00 44 1015.2
20240519130949 60 215 2.0 2.0 0.00 0.00 0.00 46 1015.6
20240519125949 59 192 3.0 3.0 0.00 0.00 0.00 48 1015.6
20240519125449 59 231 3.0 3.0 0.00 0.00 0.00 49 1015.9
20240519124949 58 220 3.0 3.0 0.00 0.00 0.00 52 1015.9
20240519123949 59 204 3.0 3.0 0.00 0.00 0.00 53 1016.3
20240519123449 60 243 3.0 3.0 0.00 0.00 0.00 46 1015.9
20240519122950 60 243 3.0 3.0 0.00 0.00 0.00 46 1015.9
20240519122449 60 239 3.0 3.0 0.00 0.00 0.00 46 1015.9
20240519120450 59 217 5.0 5.0 0.00 0.00 0.00 48 1016.3
20240519114949 59 238 5.0 5.0 0.00 0.00 0.00 52 1016.6
20240519113949 59 198 5.0 5.0 0.00 0.00 0.00 49 1016.3
20240519111949 59 191 6.0 6.0 0.00 0.00 0.00 52 1016.6
20240519111449 58 202 5.0 5.0 0.00 0.00 0.00 55 1016.9
20240519105450 59 173 7.0 7.0 0.00 0.00 0.00 54 1016.9
20240519104449 59 228 5.0 5.0 0.00 0.00 0.00 54 1016.9
20240519102449 59 205 4.0 4.0 0.00 0.00 0.00 53 1016.9
20240519101949 59 232 3.0 3.0 0.00 0.00 0.00 52 1016.9
20240519100949 59 252 3.0 3.0 0.00 0.00 0.00 52 1016.9
20240519100449 59 207 3.0 3.0 0.00 0.00 0.00 53 1017.3
20240519095449 59 210 2.0 2.0 0.00 0.00 0.00 54 1017.3
20240519093449 57 135 3.0 3.0 0.00 0.00 0.00 57 1017.3
20240519092449 57 86 3.0 3.0 0.00 0.00 0.00 57 1017.3
20240519091949 57 146 4.0 4.0 0.00 0.00 0.00 57 1017.3
20240519090449 57 37 4.0 4.0 0.00 0.00 0.00 59 1017.6
20240519084949 59 34 4.0 4.0 0.00 0.00 0.00 56 1017.6
20240519084450 60 80 4.0 4.0 0.00 0.00 0.00 51 1017.3
20240519082449 61 194 6.0 6.0 0.00 0.00 0.00 45 1017.3
20240519081449 59 166 6.0 6.0 0.00 0.00 0.00 54 1017.9
20240519075949 59 149 7.0 7.0 0.00 0.00 0.00 52 1017.9
20240519074449 60 125 5.0 5.0 0.00 0.00 0.00 51 1017.9
20240519073449 62 105 4.0 4.0 0.00 0.00 0.00 47 1017.9
20240519072949 61 151 3.0 3.0 0.00 0.00 0.00 45 1017.9
20240519070949 60 122 3.0 3.0 0.00 0.00 0.00 51 1018.3
20240519065949 63 104 4.0 4.0 0.00 0.00 0.00 45 1018.3
20240519065449 64 106 4.0 4.0 0.00 0.00 0.00 40 1017.9
20240519064950 64 304 4.0 4.0 0.00 0.00 0.00 39 1017.9
20240519063949 64 278 5.0 5.0 0.00 0.00 0.00 40 1017.9
20240519062949 64 264 4.0 4.0 0.00 0.00 0.00 39 1017.6
20240519060949 64 238 4.0 4.0 0.00 0.00 0.00 40 1017.6
20240519055950 63 242 4.0 4.0 0.00 0.00 0.06 40 1017.6
20240519054449 63 290 4.0 4.0 0.00 0.00 0.06 40 1017.9
20240519053949 62 291 4.0 4.0 0.00 0.00 0.06 43 1017.9
20240519052950 63 249 5.0 5.0 0.00 0.00 0.06 43 1017.9
20240519051449 63 213 5.0 5.0 0.00 0.00 0.06 44 1017.6
20240519045449 63 209 5.0 5.0 0.00 0.00 0.06 43 1017.9
20240519044449 63 201 4.0 4.0 0.00 0.00 0.06 44 1017.9
20240519041949 63 101 4.0 4.0 0.00 0.00 0.06 49 1018.3
20240519041449 64 139 5.0 5.0 0.00 0.00 0.06 45 1017.9
20240519040949 64 166 5.0 5.0 0.00 0.00 0.06 45 1017.9
20240519035949 64 187 5.0 5.0 0.00 0.00 0.06 44 1017.9
20240519035450 64 183 6.0 6.0 0.00 0.00 0.06 44 1017.9
20240519032949 65 189 6.0 6.0 0.00 0.00 0.06 43 1018.3
20240519031949 66 163 7.0 7.0 0.00 0.00 0.06 40 1017.9
20240519031449 66 180 7.0 7.0 0.00 0.00 0.06 39 1017.9
20240519030949 65 185 8.0 8.0 0.00 0.00 0.06 39 1017.9
20240519030449 65 186 7.0 7.0 0.00 0.00 0.06 40 1017.9
20240519025450 65 157 7.0 7.0 0.00 0.00 0.06 45 1018.3
20240519024949 65 161 7.0 7.0 0.00 0.00 0.06 43 1018.3
20240519023449 65 181 5.0 5.0 0.00 0.00 0.06 41 1018.3
20240519022450 65 189 4.0 4.0 0.00 0.00 0.06 40 1018.3
20240519020949 66 202 3.0 3.0 0.00 0.00 0.06 37 1018.3
20240519015450 67 159 3.0 3.0 0.00 0.00 0.06 36 1018.6
20240519012449 67 111 3.0 3.0 0.05 0.00 0.06 36 1018.3
20240519011949 67 47 3.0 3.0 0.05 0.00 0.06 37 1018.3
20240519011449 68 52 3.0 3.0 0.05 0.00 0.06 37 1018.3
20240519010949 68 61 3.0 3.0 0.05 0.00 0.06 37 1018.3
20240519005949 68 43 4.0 4.0 0.05 0.00 0.06 37 1018.3
20240519004949 68 352 5.0 5.0 0.05 0.00 0.06 36 1018.3
20240519004450 68 244 5.0 5.0 0.05 0.00 0.06 36 1018.3
20240519003449 68 264 6.0 6.0 0.03 0.00 0.11 38 1018.3
20240519002449 68 265 6.0 6.0 0.00 0.00 0.08 37 1018.3
20240518235949 69 203 7.0 7.0 0.04 0.00 0.06 34 1017.6
20240518234949 69 160 8.0 8.0 0.04 0.00 0.06 35 1017.3
20240518233949 69 182 10.0 10.0 0.04 0.00 0.06 34 1017.3
20240518233449 69 182 11.0 11.0 0.04 0.00 0.06 34 1017.3
20240518232949 69 184 11.0 11.0 0.04 0.00 0.06 34 1017.3
20240518231949 69 191 12.0 12.0 0.03 0.00 0.08 35 1017.3
20240518230949 70 188 12.0 12.0 0.03 0.00 0.06 35 1017.3
20240518225949 71 236 13.0 13.0 0.01 0.00 0.08 28 1016.6
20240518224449 68 138 12.0 12.0 0.01 0.00 0.06 45 1016.9
20240518223450 68 160 12.0 12.0 0.02 0.00 0.07 45 1016.6
20240518222449 70 156 13.0 13.0 0.01 0.00 0.06 41 1016.3
20240518221449 71 163 13.0 13.0 0.01 0.00 0.06 34 1016.3
20240518220949 70 146 13.0 13.0 0.01 0.00 0.06 40 1016.3
20240518215950 68 147 14.0 14.0 0.01 0.00 0.06 44 1016.9
20240518215449 68 158 14.0 14.0 0.01 0.00 0.06 44 1016.9
20240518213949 68 155 12.0 12.0 0.01 0.00 0.06 43 1017.3
20240518212949 67 168 11.0 11.0 0.00 0.00 0.07 43 1017.6
20240518211949 68 145 10.0 10.0 0.00 0.00 0.06 41 1017.6
20240518211449 68 160 11.0 11.0 0.00 0.00 0.06 40 1017.6
20240518210949 68 149 10.0 10.0 0.00 0.00 0.06 42 1017.3
20240518205949 68 159 10.0 10.0 0.00 0.00 0.06 42 1017.6
20240518203949 67 156 9.0 9.0 0.00 0.00 0.06 40 1017.9